Time,TemperatureF,DewpointF,PressureIn,WindDirection,WindDirectionDegrees,WindSpeedMPH,WindSpeedGustMPH,Humidity,HourlyPrecipIn,Conditions,Clouds,dailyrainin,SoftwareType,DateUTC
2013-01-24 00:00:00,24.1,10.7,30.17,ESE,117,0.0,0.0,56,0.00,,---,0.00,VWS V14.01,2013-01-24 05:00:00,
2013-01-24 00:05:00,24.0,10.6,30.16,ESE,117,0.0,0.0,56,0.00,,---,0.00,VWS V14.01,2013-01-24 05:05:00,
2013-01-24 00:10:00,23.9,10.5,30.17,ESE,117,0.0,1.0,56,0.00,,---,0.00,VWS V14.01,2013-01-24 05:10:00,
2013-01-24 00:15:00,23.9,10.5,30.16,ESE,105,0.0,0.0,56,0.00,,---,0.00,VWS V14.01,2013-01-24 05:15:00,
2013-01-24 00:20:00,23.9,10.9,30.16,ESE,103,0.0,1.0,57,0.00,,---,0.00,VWS V14.01,2013-01-24 05:20:00,
2013-01-24 00:25:00,23.8,11.6,30.15,East,99,2.0,2.0,59,0.00,,---,0.00,VWS V14.01,2013-01-24 05:25:00,
2013-01-24 00:31:00,23.6,11.8,30.16,NE,53,1.0,1.0,60,0.00,,---,0.00,VWS V14.01,2013-01-24 05:31:00,
2013-01-24 00:36:00,23.5,12.0,30.15,ENE,63,0.0,1.0,61,0.00,,---,0.00,VWS V14.01,2013-01-24 05:36:00,
2013-01-24 00:41:00,23.3,12.2,30.15,NNE,26,1.0,1.0,62,0.00,,---,0.00,VWS V14.01,2013-01-24 05:41:00,
2013-01-24 00:46:00,23.2,12.8,30.15,NE,46,0.0,4.0,64,0.00,,---,0.00,VWS V14.01,2013-01-24 05:46:00,
2013-01-24 00:51:00,23.0,13.0,30.15,NE,42,1.0,1.0,65,0.00,,---,0.00,VWS V14.01,2013-01-24 05:51:00,
2013-01-24 00:56:00,22.9,13.3,30.15,NE,40,4.0,4.0,66,0.00,,---,0.00,VWS V14.01,2013-01-24 05:56:00,
2013-01-24 01:01:00,22.7,14.1,30.15,SE,132,0.0,1.0,69,0.00,,---,0.00,VWS V14.01,2013-01-24 06:01:00,
2013-01-24 01:06:00,22.5,15.2,30.15,ENE,76,2.0,2.0,73,0.00,,---,0.00,VWS V14.01,2013-01-24 06:06:00,
2013-01-24 01:11:00,22.1,15.7,30.15,SSE,165,0.0,0.0,76,0.00,,---,0.00,VWS V14.01,2013-01-24 06:11:00,
2013-01-24 01:16:00,21.8,16.3,30.15,ESE,110,0.0,1.0,79,0.00,,---,0.00,VWS V14.01,2013-01-24 06:16:00,
2013-01-24 01:21:00,21.5,16.6,30.14,ENE,61,1.0,1.0,81,0.00,,---,0.00,VWS V14.01,2013-01-24 06:21:00,
2013-01-24 01:26:00,21.2,16.6,30.14,ENE,63,0.0,0.0,82,0.00,,---,0.00,VWS V14.01,2013-01-24 06:26:00,
2013-01-24 01:31:00,20.9,16.6,30.14,ENE,78,0.0,1.0,83,0.00,,---,0.00,VWS V14.01,2013-01-24 06:31:00,
2013-01-24 01:36:00,20.7,16.6,30.14,NE,53,0.0,1.0,84,0.00,,---,0.00,VWS V14.01,2013-01-24 06:36:00,
2013-01-24 01:41:00,20.5,16.7,30.14,ENE,68,5.0,5.0,85,0.00,,---,0.00,VWS V14.01,2013-01-24 06:41:00,
2013-01-24 01:46:00,20.3,16.5,30.14,ENE,70,2.0,2.0,85,0.00,,---,0.00,VWS V14.01,2013-01-24 06:46:00,
2013-01-24 01:51:00,20.1,16.6,30.14,ENE,62,2.0,2.0,86,0.00,,---,0.00,VWS V14.01,2013-01-24 06:51:00,
2013-01-24 01:56:00,20.0,16.8,30.14,ENE,72,0.0,0.0,87,0.00,,---,0.00,VWS V14.01,2013-01-24 06:56:00,
2013-01-24 02:01:00,19.9,16.7,30.14,NE,54,0.0,1.0,87,0.00,,---,0.00,VWS V14.01,2013-01-24 07:01:00,
2013-01-24 02:06:00,19.9,16.7,30.14,NE,38,0.0,0.0,87,0.00,,---,0.00,VWS V14.01,2013-01-24 07:06:00,
2013-01-24 02:11:00,19.9,16.9,30.14,ESE,119,0.0,1.0,88,0.00,,---,0.00,VWS V14.01,2013-01-24 07:11:00,
2013-01-24 02:16:00,19.8,16.8,30.14,ENE,69,0.0,0.0,88,0.00,,---,0.00,VWS V14.01,2013-01-24 07:16:00,
2013-01-24 02:21:00,19.8,16.8,30.13,ENE,65,0.0,0.0,88,0.00,,---,0.00,VWS V14.01,2013-01-24 07:21:00,
2013-01-24 02:26:00,19.8,16.8,30.13,NE,56,0.0,0.0,88,0.00,,---,0.00,VWS V14.01,2013-01-24 07:26:00,
2013-01-24 02:31:00,19.8,16.8,30.13,East,80,1.0,2.0,88,0.00,,---,0.00,VWS V14.01,2013-01-24 07:31:00,
2013-01-24 02:36:00,19.7,16.7,30.13,ENE,78,0.0,1.0,88,0.00,,---,0.00,VWS V14.01,2013-01-24 07:36:00,
2013-01-24 02:41:00,19.6,16.6,30.13,ESE,122,0.0,0.0,88,0.00,,---,0.00,VWS V14.01,2013-01-24 07:41:00,
2013-01-24 02:46:00,19.6,16.6,30.13,ENE,64,1.0,4.0,88,0.00,,---,0.00,VWS V14.01,2013-01-24 07:46:00,
2013-01-24 02:51:00,19.5,16.5,30.12,East,82,0.0,0.0,88,0.00,,---,0.00,VWS V14.01,2013-01-24 07:51:00,
2013-01-24 02:56:00,19.5,16.5,30.12,NE,50,1.0,3.0,88,0.00,,---,0.00,VWS V14.01,2013-01-24 07:56:00,
2013-01-24 03:01:00,19.4,16.4,30.12,East,89,0.0,0.0,88,0.00,,---,0.00,VWS V14.01,2013-01-24 08:01:00,
2013-01-24 03:06:00,19.4,16.4,30.12,ENE,71,1.0,1.0,88,0.00,,---,0.00,VWS V14.01,2013-01-24 08:06:00,
2013-01-24 03:11:00,19.3,16.3,30.12,East,79,1.0,1.0,88,0.00,,---,0.00,VWS V14.01,2013-01-24 08:11:00,
2013-01-24 03:16:00,19.3,16.3,30.12,ESE,115,0.0,0.0,88,0.00,,---,0.00,VWS V14.01,2013-01-24 08:16:00,
2013-01-24 03:21:00,19.3,16.3,30.12,East,97,0.0,0.0,88,0.00,,---,0.00,VWS V14.01,2013-01-24 08:21:00,
2013-01-24 03:26:00,19.3,16.3,30.12,NE,54,0.0,1.0,88,0.00,,---,0.00,VWS V14.01,2013-01-24 08:26:00,
2013-01-24 03:31:00,19.3,16.3,30.12,ENE,57,0.0,0.0,88,0.00,,---,0.00,VWS V14.01,2013-01-24 08:31:00,
2013-01-24 03:36:00,19.2,16.2,30.12,ENE,66,0.0,2.0,88,0.00,,---,0.00,VWS V14.01,2013-01-24 08:36:00,
2013-01-24 03:41:00,19.2,16.2,30.12,ENE,67,2.0,4.0,88,0.00,,---,0.00,VWS V14.01,2013-01-24 08:41:00,
2013-01-24 03:46:00,19.2,16.2,30.12,NE,55,0.0,1.0,88,0.00,,---,0.00,VWS V14.01,2013-01-24 08:46:00,
2013-01-24 03:51:00,19.1,16.1,30.12,NE,46,0.0,0.0,88,0.00,,---,0.00,VWS V14.01,2013-01-24 08:51:00,
2013-01-24 03:56:00,19.2,16.2,30.12,ENE,57,0.0,1.0,88,0.00,,---,0.00,VWS V14.01,2013-01-24 08:56:00,
2013-01-24 04:01:00,19.2,16.2,30.12,ENE,59,2.0,4.0,88,0.00,,---,0.00,VWS V14.01,2013-01-24 09:01:00,
2013-01-24 04:06:00,19.2,16.2,30.12,East,84,1.0,3.0,88,0.00,,---,0.00,VWS V14.01,2013-01-24 09:06:00,
2013-01-24 04:11:00,19.1,16.1,30.12,ENE,73,1.0,2.0,88,0.00,,---,0.00,VWS V14.01,2013-01-24 09:11:00,
2013-01-24 04:16:00,19.2,16.2,30.12,SE,128,0.0,0.0,88,0.00,,---,0.00,VWS V14.01,2013-01-24 09:16:00,
2013-01-24 04:21:00,19.2,16.2,30.12,NE,49,0.0,2.0,88,0.00,,---,0.00,VWS V14.01,2013-01-24 09:21:00,
2013-01-24 04:26:00,19.1,16.1,30.12,NE,48,0.0,0.0,88,0.00,,---,0.00,VWS V14.01,2013-01-24 09:26:00,
2013-01-24 04:31:00,19.0,16.0,30.13,ESE,117,0.0,2.0,88,0.00,,---,0.00,VWS V14.01,2013-01-24 09:31:00,
2013-01-24 04:36:00,19.0,16.0,30.13,ESE,117,0.0,0.0,88,0.00,,---,0.00,VWS V14.01,2013-01-24 09:36:00,
2013-01-24 04:41:00,19.0,16.3,30.13,NE,52,0.0,0.0,89,0.00,,---,0.00,VWS V14.01,2013-01-24 09:41:00,
2013-01-24 04:46:00,19.0,16.3,30.13,NE,49,0.0,3.0,89,0.00,,---,0.00,VWS V14.01,2013-01-24 09:46:00,
2013-01-24 04:51:00,18.9,16.2,30.13,NE,43,0.0,4.0,89,0.00,,---,0.00,VWS V14.01,2013-01-24 09:51:00,
2013-01-24 04:56:00,19.0,16.3,30.14,ENE,57,0.0,2.0,89,0.00,,---,0.00,VWS V14.01,2013-01-24 09:56:00,
2013-01-24 05:01:00,18.9,16.2,30.14,ENE,71,0.0,2.0,89,0.00,,---,0.00,VWS V14.01,2013-01-24 10:01:00,
2013-01-24 05:06:00,18.9,16.2,30.14,ENE,65,1.0,1.0,89,0.00,,---,0.00,VWS V14.01,2013-01-24 10:06:00,
2013-01-24 05:11:00,18.9,16.5,30.14,NE,51,2.0,2.0,90,0.00,,---,0.00,VWS V14.01,2013-01-24 10:11:00,
2013-01-24 05:16:00,18.9,16.5,30.15,NE,42,2.0,2.0,90,0.00,,---,0.00,VWS V14.01,2013-01-24 10:16:00,
2013-01-24 05:21:00,18.9,16.5,30.15,ENE,58,0.0,0.0,90,0.00,,---,0.00,VWS V14.01,2013-01-24 10:21:00,
2013-01-24 05:26:00,18.9,16.5,30.15,NNE,32,0.0,0.0,90,0.00,,---,0.00,VWS V14.01,2013-01-24 10:26:00,
2013-01-24 05:31:00,18.8,16.1,30.16,NE,39,2.0,4.0,89,0.00,,---,0.00,VWS V14.01,2013-01-24 10:31:00,
2013-01-24 05:36:00,18.6,15.9,30.16,NE,38,0.0,0.0,89,0.00,,---,0.00,VWS V14.01,2013-01-24 10:36:00,
2013-01-24 05:41:00,18.5,15.8,30.17,ENE,62,0.0,1.0,89,0.00,,---,0.00,VWS V14.01,2013-01-24 10:41:00,
2013-01-24 05:46:00,18.3,15.4,30.17,NE,44,0.0,3.0,88,0.00,,---,0.00,VWS V14.01,2013-01-24 10:46:00,
2013-01-24 05:51:00,18.2,15.2,30.17,ENE,59,1.0,2.0,88,0.00,,---,0.00,VWS V14.01,2013-01-24 10:51:00,
2013-01-24 05:56:00,18.2,15.5,30.17,NE,53,0.0,0.0,89,0.00,,---,0.00,VWS V14.01,2013-01-24 10:56:00,
2013-01-24 06:01:00,18.2,15.2,30.17,NE,42,1.0,3.0,88,0.00,,---,0.00,VWS V14.01,2013-01-24 11:01:00,
2013-01-24 06:06:00,18.1,15.4,30.17,NE,42,0.0,0.0,89,0.00,,---,0.00,VWS V14.01,2013-01-24 11:06:00,
2013-01-24 06:11:00,18.1,15.4,30.18,NNE,29,0.0,6.0,89,0.00,,---,0.00,VWS V14.01,2013-01-24 11:11:00,
2013-01-24 06:16:00,18.0,15.1,30.18,East,87,0.0,2.0,88,0.00,,---,0.00,VWS V14.01,2013-01-24 11:16:00,
2013-01-24 06:21:00,17.9,14.9,30.18,NE,42,0.0,2.0,88,0.00,,---,0.00,VWS V14.01,2013-01-24 11:21:00,
2013-01-24 06:26:00,17.8,14.9,30.19,NE,42,0.0,0.0,88,0.00,,---,0.00,VWS V14.01,2013-01-24 11:26:00,
2013-01-24 06:31:00,17.8,14.9,30.19,NE,42,0.0,0.0,88,0.00,,---,0.00,VWS V14.01,2013-01-24 11:31:00,
2013-01-24 06:36:00,17.8,14.9,30.20,NE,42,0.0,0.0,88,0.00,,---,0.00,VWS V14.01,2013-01-24 11:36:00,
2013-01-24 06:41:00,17.7,14.8,30.20,NNE,25,1.0,5.0,88,0.00,,---,0.00,VWS V14.01,2013-01-24 11:41:00,
2013-01-24 06:46:00,17.7,14.8,30.20,NNE,25,0.0,0.0,88,0.00,,---,0.00,VWS V14.01,2013-01-24 11:46:00,
2013-01-24 06:51:00,17.6,14.7,30.21,NNE,31,0.0,0.0,88,0.00,,---,0.00,VWS V14.01,2013-01-24 11:51:00,
2013-01-24 06:56:00,17.6,14.4,30.21,ENE,62,0.0,0.0,87,0.00,,---,0.00,VWS V14.01,2013-01-24 11:56:00,
2013-01-24 07:01:00,17.5,14.3,30.21,ENE,58,0.0,2.0,87,0.00,,---,0.00,VWS V14.01,2013-01-24 12:01:00,
2013-01-24 07:06:00,17.5,14.0,30.21,ENE,63,1.0,1.0,86,0.00,,---,0.00,VWS V14.01,2013-01-24 12:06:00,
2013-01-24 07:11:00,17.4,13.7,30.21,NE,47,0.0,2.0,85,0.00,,---,0.00,VWS V14.01,2013-01-24 12:11:00,
2013-01-24 07:16:00,17.3,13.6,30.21,NE,47,0.0,0.0,85,0.00,,---,0.00,VWS V14.01,2013-01-24 12:16:00,
2013-01-24 07:21:00,17.3,13.3,30.22,ENE,67,0.0,0.0,84,0.00,,---,0.00,VWS V14.01,2013-01-24 12:21:00,
2013-01-24 07:26:00,17.2,13.2,30.23,NE,42,0.0,0.0,84,0.00,,---,0.00,VWS V14.01,2013-01-24 12:26:00,
2013-01-24 07:31:00,17.2,13.2,30.23,ESE,120,0.0,0.0,84,0.00,,---,0.00,VWS V14.01,2013-01-24 12:31:00,
2013-01-24 07:36:00,17.1,13.1,30.23,NE,55,0.0,0.0,84,0.00,,---,0.00,VWS V14.01,2013-01-24 12:36:00,
2013-01-24 07:41:00,17.1,12.8,30.23,NE,55,0.0,0.0,83,0.00,,---,0.00,VWS V14.01,2013-01-24 12:41:00,
2013-01-24 07:46:00,17.1,12.8,30.24,NE,55,0.0,0.0,83,0.00,,---,0.00,VWS V14.01,2013-01-24 12:46:00,
2013-01-24 07:51:00,17.0,12.7,30.24,NE,55,0.0,0.0,83,0.00,,---,0.00,VWS V14.01,2013-01-24 12:51:00,
2013-01-24 07:56:00,17.0,12.7,30.25,NE,55,0.0,0.0,83,0.00,,---,0.00,VWS V14.01,2013-01-24 12:56:00,
2013-01-24 08:01:00,17.0,13.0,30.25,NE,55,0.0,0.0,84,0.00,,---,0.00,VWS V14.01,2013-01-24 13:01:00,
2013-01-24 08:06:00,17.0,13.0,30.25,NE,55,0.0,0.0,84,0.00,,---,0.00,VWS V14.01,2013-01-24 13:06:00,
2013-01-24 08:11:00,17.0,12.7,30.26,NE,55,0.0,0.0,83,0.00,,---,0.00,VWS V14.01,2013-01-24 13:11:00,
2013-01-24 08:16:00,17.1,12.8,30.26,NE,55,0.0,0.0,83,0.00,,---,0.00,VWS V14.01,2013-01-24 13:16:00,
2013-01-24 08:21:00,17.1,13.1,30.26,NE,55,0.0,0.0,84,0.00,,---,0.00,VWS V14.01,2013-01-24 13:21:00,
2013-01-24 08:26:00,17.2,13.2,30.27,NE,55,0.0,0.0,84,0.00,,---,0.00,VWS V14.01,2013-01-24 13:26:00,
2013-01-24 08:31:00,17.3,13.0,30.27,NE,55,0.0,0.0,83,0.00,,---,0.00,VWS V14.01,2013-01-24 13:31:00,
2013-01-24 08:36:00,17.5,13.2,30.28,NE,55,0.0,0.0,83,0.00,,---,0.00,VWS V14.01,2013-01-24 13:36:00,
2013-01-24 08:41:00,17.7,13.4,30.28,NE,55,0.0,0.0,83,0.00,,---,0.00,VWS V14.01,2013-01-24 13:41:00,
2013-01-24 08:46:00,17.9,13.4,30.28,NW,321,0.0,1.0,82,0.00,,---,0.00,VWS V14.01,2013-01-24 13:46:00,
2013-01-24 08:51:00,18.2,13.4,30.29,SW,234,1.0,3.0,81,0.00,,---,0.00,VWS V14.01,2013-01-24 13:51:00,
2013-01-24 08:56:00,18.5,13.6,30.29,North,355,0.0,1.0,81,0.00,,---,0.00,VWS V14.01,2013-01-24 13:56:00,
2013-01-24 09:01:00,18.7,13.3,30.30,NNW,340,0.0,0.0,79,0.00,,---,0.00,VWS V14.01,2013-01-24 14:01:00,
2013-01-24 09:06:00,19.1,13.7,30.30,NE,41,0.0,1.0,79,0.00,,---,0.00,VWS V14.01,2013-01-24 14:06:00,
2013-01-24 09:11:00,19.4,14.0,30.30,NE,41,0.0,0.0,79,0.00,,---,0.00,VWS V14.01,2013-01-24 14:11:00,
2013-01-24 09:16:00,19.7,13.7,30.30,North,355,1.0,2.0,77,0.00,,---,0.00,VWS V14.01,2013-01-24 14:16:00,
2013-01-24 09:21:00,19.8,13.5,30.31,North,11,2.0,2.0,76,0.00,,---,0.00,VWS V14.01,2013-01-24 14:21:00,
2013-01-24 09:26:00,19.9,13.3,30.31,WSW,245,1.0,3.0,75,0.00,,---,0.00,VWS V14.01,2013-01-24 14:26:00,
2013-01-24 09:31:00,20.1,13.5,30.31,WSW,245,0.0,0.0,75,0.00,,---,0.00,VWS V14.01,2013-01-24 14:31:00,
2013-01-24 09:36:00,20.3,13.7,30.31,WSW,252,0.0,1.0,75,0.00,,---,0.00,VWS V14.01,2013-01-24 14:36:00,
2013-01-24 09:41:00,20.5,13.2,30.31,NW,321,0.0,2.0,73,0.00,,---,0.00,VWS V14.01,2013-01-24 14:41:00,
2013-01-24 09:46:00,20.7,13.7,30.31,SE,134,0.0,3.0,74,0.00,,---,0.00,VWS V14.01,2013-01-24 14:46:00,
2013-01-24 09:51:00,20.9,13.3,30.31,WNW,291,0.0,2.0,72,0.00,,---,0.00,VWS V14.01,2013-01-24 14:51:00,
2013-01-24 09:56:00,21.1,13.2,30.32,ENE,73,0.0,0.0,71,0.00,,---,0.00,VWS V14.01,2013-01-24 14:56:00,
2013-01-24 10:01:00,21.3,13.4,30.32,North,9,1.0,3.0,71,0.00,,---,0.00,VWS V14.01,2013-01-24 15:01:00,
2013-01-24 10:06:00,21.4,12.8,30.32,NNE,23,0.0,1.0,69,0.00,,---,0.00,VWS V14.01,2013-01-24 15:06:00,
2013-01-24 10:11:00,21.5,12.9,30.32,NE,46,0.0,2.0,69,0.00,,---,0.00,VWS V14.01,2013-01-24 15:11:00,
2013-01-24 10:16:00,21.7,12.8,30.32,West,269,0.0,2.0,68,0.00,,---,0.00,VWS V14.01,2013-01-24 15:16:00,
2013-01-24 10:21:00,22.0,13.1,30.33,South,181,0.0,2.0,68,0.00,,---,0.00,VWS V14.01,2013-01-24 15:21:00,
2013-01-24 10:26:00,22.2,12.9,30.33,WNW,296,0.0,2.0,67,0.00,,---,0.00,VWS V14.01,2013-01-24 15:26:00,
2013-01-24 10:31:00,22.5,13.2,30.33,West,278,0.0,2.0,67,0.00,,---,0.00,VWS V14.01,2013-01-24 15:31:00,
2013-01-24 10:36:00,22.7,13.4,30.33,SSW,198,2.0,2.0,67,0.00,,---,0.00,VWS V14.01,2013-01-24 15:36:00,
2013-01-24 10:41:00,22.9,12.9,30.33,NNW,348,2.0,2.0,65,0.00,,---,0.00,VWS V14.01,2013-01-24 15:41:00,
2013-01-24 10:46:00,23.1,13.1,30.33,NNE,25,1.0,2.0,65,0.00,,---,0.00,VWS V14.01,2013-01-24 15:46:00,
2013-01-24 10:51:00,23.4,13.0,30.33,SSE,166,0.0,2.0,64,0.00,,---,0.00,VWS V14.01,2013-01-24 15:51:00,
2013-01-24 10:56:00,23.5,13.1,30.33,North,11,2.0,2.0,64,0.00,,---,0.00,VWS V14.01,2013-01-24 15:56:00,
2013-01-24 11:01:00,23.5,12.8,30.34,North,360,0.0,2.0,63,0.00,,---,0.00,VWS V14.01,2013-01-24 16:01:00,
2013-01-24 11:06:00,23.6,12.9,30.34,NE,51,1.0,5.0,63,0.00,,---,0.00,VWS V14.01,2013-01-24 16:06:00,
2013-01-24 11:11:00,23.6,13.2,30.34,WNW,286,0.0,2.0,64,0.00,,---,0.00,VWS V14.01,2013-01-24 16:11:00,
2013-01-24 11:16:00,24.0,14.0,30.34,West,268,1.0,5.0,65,0.00,,---,0.00,VWS V14.01,2013-01-24 16:16:00,
2013-01-24 11:21:00,24.4,13.3,30.34,NNE,23,4.0,5.0,62,0.00,,---,0.00,VWS V14.01,2013-01-24 16:21:00,
2013-01-24 11:26:00,24.5,13.0,30.34,NE,55,0.0,1.0,61,0.00,,---,0.00,VWS V14.01,2013-01-24 16:26:00,
2013-01-24 11:31:00,24.6,13.8,30.34,NNE,31,4.0,4.0,63,0.01,,---,0.01,VWS V14.01,2013-01-24 16:31:00,
2013-01-24 11:36:00,24.7,13.2,30.35,WNW,294,0.0,1.0,61,0.01,,---,0.01,VWS V14.01,2013-01-24 16:36:00,
2013-01-24 11:41:00,24.9,13.7,30.35,WNW,288,1.0,1.0,62,0.01,,---,0.01,VWS V14.01,2013-01-24 16:41:00,
2013-01-24 11:46:00,25.3,13.8,30.35,NW,310,1.0,2.0,61,0.01,,---,0.01,VWS V14.01,2013-01-24 16:46:00,
2013-01-24 11:51:00,25.5,13.6,30.35,WNW,294,0.0,1.0,60,0.01,,---,0.01,VWS V14.01,2013-01-24 16:51:00,
2013-01-24 11:56:00,25.8,14.2,30.35,NW,310,1.0,2.0,61,0.01,,---,0.01,VWS V14.01,2013-01-24 16:56:00,
2013-01-24 12:01:00,26.1,14.1,30.35,NNW,347,6.0,7.0,60,0.01,,---,0.01,VWS V14.01,2013-01-24 17:01:00,
2013-01-24 12:06:00,26.3,13.6,30.35,West,268,5.0,5.0,58,0.01,,---,0.01,VWS V14.01,2013-01-24 17:06:00,
2013-01-24 12:11:00,26.3,13.1,30.35,NNE,22,0.0,4.0,57,0.01,,---,0.01,VWS V14.01,2013-01-24 17:11:00,
2013-01-24 12:16:00,26.5,13.7,30.35,West,259,2.0,7.0,58,0.01,,---,0.01,VWS V14.01,2013-01-24 17:16:00,
2013-01-24 12:21:00,26.2,13.1,30.35,WNW,286,1.0,6.0,57,0.02,,---,0.02,VWS V14.01,2013-01-24 17:21:00,
2013-01-24 12:26:00,25.9,13.2,30.35,NW,315,2.0,5.0,58,0.02,,---,0.02,VWS V14.01,2013-01-24 17:26:00,
2013-01-24 12:31:00,25.6,12.9,30.35,West,279,1.0,4.0,58,0.01,,---,0.02,VWS V14.01,2013-01-24 17:31:00,
2013-01-24 12:36:00,25.3,13.0,30.35,NNE,32,4.0,4.0,59,0.01,,---,0.02,VWS V14.01,2013-01-24 17:36:00,
2013-01-24 12:41:00,25.4,13.1,30.35,WNW,296,0.0,5.0,59,0.01,,---,0.02,VWS V14.01,2013-01-24 17:41:00,
2013-01-24 12:46:00,25.4,12.3,30.36,West,279,2.0,5.0,57,0.01,,---,0.02,VWS V14.01,2013-01-24 17:46:00,
2013-01-24 12:51:00,25.4,13.1,30.36,SW,220,1.0,2.0,59,0.01,,---,0.02,VWS V14.01,2013-01-24 17:51:00,
2013-01-24 12:56:00,25.4,13.1,30.36,West,263,0.0,1.0,59,0.01,,---,0.02,VWS V14.01,2013-01-24 17:56:00,
2013-01-24 13:01:00,25.4,13.1,30.36,SW,227,4.0,5.0,59,0.01,,---,0.02,VWS V14.01,2013-01-24 18:01:00,
2013-01-24 13:06:00,25.3,13.4,30.36,NNE,22,1.0,2.0,60,0.01,,---,0.02,VWS V14.01,2013-01-24 18:06:00,
2013-01-24 13:11:00,25.3,13.4,30.36,NW,307,1.0,4.0,60,0.01,,---,0.02,VWS V14.01,2013-01-24 18:11:00,
2013-01-24 13:16:00,25.3,13.0,30.36,South,176,2.0,7.0,59,0.01,,---,0.02,VWS V14.01,2013-01-24 18:16:00,
2013-01-24 13:21:00,25.8,13.5,30.36,North,360,2.0,7.0,59,0.00,,---,0.02,VWS V14.01,2013-01-24 18:21:00,
2013-01-24 13:26:00,26.2,13.1,30.36,NW,313,1.0,4.0,57,0.00,,---,0.02,VWS V14.01,2013-01-24 18:26:00,
2013-01-24 13:31:00,26.6,13.0,30.36,North,355,3.0,4.0,56,0.00,,---,0.02,VWS V14.01,2013-01-24 18:31:00,
2013-01-24 13:36:00,27.0,13.0,30.36,NNW,344,2.0,6.0,55,0.00,,---,0.02,VWS V14.01,2013-01-24 18:36:00,
2013-01-24 13:41:00,27.2,12.8,30.36,NW,313,0.0,1.0,54,0.01,,---,0.03,VWS V14.01,2013-01-24 18:41:00,
2013-01-24 13:46:00,27.6,12.7,30.36,WNW,286,3.0,4.0,53,0.01,,---,0.03,VWS V14.01,2013-01-24 18:46:00,
2013-01-24 13:51:00,27.7,11.9,30.36,NNW,346,6.0,8.0,51,0.01,,---,0.03,VWS V14.01,2013-01-24 18:51:00,
2013-01-24 13:56:00,27.6,11.4,30.37,North,5,4.0,6.0,50,0.01,,---,0.03,VWS V14.01,2013-01-24 18:56:00,
2013-01-24 14:01:00,27.6,10.0,30.37,NW,317,0.0,2.0,47,0.01,,---,0.03,VWS V14.01,2013-01-24 19:01:00,
2013-01-24 14:06:00,27.7,11.0,30.37,NNE,19,1.0,4.0,49,0.01,,---,0.03,VWS V14.01,2013-01-24 19:06:00,
2013-01-24 14:11:00,27.8,10.2,30.37,NW,316,1.0,5.0,47,0.01,,---,0.03,VWS V14.01,2013-01-24 19:11:00,
2013-01-24 14:16:00,27.9,9.3,30.36,North,11,0.0,2.0,45,0.01,,---,0.03,VWS V14.01,2013-01-24 19:16:00,
2013-01-24 14:21:00,27.9,8.8,30.37,WNW,296,2.0,3.0,44,0.01,,---,0.03,VWS V14.01,2013-01-24 19:21:00,
2013-01-24 14:26:00,27.9,9.3,30.37,WNW,282,1.0,2.0,45,0.01,,---,0.03,VWS V14.01,2013-01-24 19:26:00,
2013-01-24 14:31:00,28.0,8.4,30.37,NNE,26,5.0,5.0,43,0.01,,---,0.03,VWS V14.01,2013-01-24 19:31:00,
2013-01-24 14:36:00,28.0,7.9,30.37,SSW,198,5.0,5.0,42,0.02,,---,0.04,VWS V14.01,2013-01-24 19:36:00,
2013-01-24 14:41:00,28.1,7.4,30.38,West,273,1.0,2.0,41,0.02,,---,0.04,VWS V14.01,2013-01-24 19:41:00,
2013-01-24 14:46:00,28.2,7.5,30.38,WNW,286,1.0,4.0,41,0.01,,---,0.04,VWS V14.01,2013-01-24 19:46:00,
2013-01-24 14:51:00,28.2,7.5,30.38,South,191,1.0,6.0,41,0.01,,---,0.04,VWS V14.01,2013-01-24 19:51:00,
2013-01-24 14:56:00,28.1,7.4,30.38,NNE,26,2.0,6.0,41,0.01,,---,0.04,VWS V14.01,2013-01-24 19:56:00,
2013-01-24 15:01:00,27.9,8.3,30.38,NW,304,5.0,7.0,43,0.01,,---,0.04,VWS V14.01,2013-01-24 20:01:00,
2013-01-24 15:06:00,27.8,7.2,30.39,NNW,338,0.0,3.0,41,0.01,,---,0.04,VWS V14.01,2013-01-24 20:06:00,
2013-01-24 15:11:00,27.8,7.7,30.39,NE,38,1.0,1.0,42,0.01,,---,0.04,VWS V14.01,2013-01-24 20:11:00,
2013-01-24 15:16:00,27.9,6.7,30.40,NNE,15,1.0,4.0,40,0.01,,---,0.04,VWS V14.01,2013-01-24 20:16:00,
2013-01-24 15:21:00,27.8,7.2,30.40,NNE,25,3.0,5.0,41,0.01,,---,0.04,VWS V14.01,2013-01-24 20:21:00,
2013-01-24 15:26:00,27.6,5.9,30.40,NNE,17,2.0,3.0,39,0.01,,---,0.04,VWS V14.01,2013-01-24 20:26:00,
2013-01-24 15:31:00,27.6,6.4,30.40,NE,48,3.0,5.0,40,0.01,,---,0.04,VWS V14.01,2013-01-24 20:31:00,
2013-01-24 15:36:00,27.5,5.8,30.41,NNW,330,1.0,2.0,39,0.00,,---,0.04,VWS V14.01,2013-01-24 20:36:00,
2013-01-24 15:41:00,27.5,5.8,30.41,SSW,211,0.0,1.0,39,0.00,,---,0.04,VWS V14.01,2013-01-24 20:41:00,
2013-01-24 15:46:00,27.5,6.4,30.41,NNW,347,2.0,6.0,40,0.00,,---,0.04,VWS V14.01,2013-01-24 20:46:00,
2013-01-24 15:51:00,27.4,6.8,30.42,NNW,328,0.0,1.0,41,0.00,,---,0.04,VWS V14.01,2013-01-24 20:51:00,
2013-01-24 15:56:00,27.3,6.2,30.42,ENE,73,0.0,2.0,40,0.00,,---,0.04,VWS V14.01,2013-01-24 20:56:00,
2013-01-24 16:01:00,27.3,6.7,30.42,North,10,4.0,4.0,41,0.00,,---,0.04,VWS V14.01,2013-01-24 21:01:00,
2013-01-24 16:06:00,27.3,6.7,30.42,North,355,0.0,4.0,41,0.00,,---,0.04,VWS V14.01,2013-01-24 21:06:00,
2013-01-24 16:11:00,27.2,7.7,30.42,ENE,72,0.0,1.0,43,0.00,,---,0.04,VWS V14.01,2013-01-24 21:11:00,
2013-01-24 16:16:00,27.1,6.5,30.42,WNW,284,1.0,4.0,41,0.00,,---,0.04,VWS V14.01,2013-01-24 21:16:00,
2013-01-24 16:21:00,27.0,6.4,30.43,WNW,302,1.0,2.0,41,0.00,,---,0.04,VWS V14.01,2013-01-24 21:21:00,
2013-01-24 16:26:00,26.9,6.9,30.43,ESE,110,0.0,1.0,42,0.00,,---,0.04,VWS V14.01,2013-01-24 21:26:00,
2013-01-24 16:31:00,26.8,6.8,30.43,West,278,1.0,2.0,42,0.00,,---,0.04,VWS V14.01,2013-01-24 21:31:00,
2013-01-24 16:36:00,26.7,6.7,30.43,West,263,0.0,3.0,42,0.00,,---,0.04,VWS V14.01,2013-01-24 21:36:00,
2013-01-24 16:41:00,26.7,6.7,30.43,SW,230,0.0,2.0,42,0.00,,---,0.04,VWS V14.01,2013-01-24 21:41:00,
2013-01-24 16:46:00,26.7,6.2,30.43,WNW,286,0.0,1.0,41,0.00,,---,0.04,VWS V14.01,2013-01-24 21:46:00,
2013-01-24 16:51:00,26.7,6.7,30.44,West,269,0.0,1.0,42,0.00,,---,0.04,VWS V14.01,2013-01-24 21:51:00,
2013-01-24 16:56:00,26.5,6.5,30.44,SSW,213,0.0,5.0,42,0.00,,---,0.04,VWS V14.01,2013-01-24 21:56:00,
2013-01-24 17:01:00,26.3,6.9,30.44,West,271,0.0,1.0,43,0.00,,---,0.04,VWS V14.01,2013-01-24 22:01:00,
2013-01-24 17:06:00,26.1,6.2,30.44,SW,222,0.0,0.0,42,0.00,,---,0.04,VWS V14.01,2013-01-24 22:06:00,
2013-01-24 17:11:00,25.9,6.5,30.44,WNW,288,0.0,2.0,43,0.00,,---,0.04,VWS V14.01,2013-01-24 22:11:00,
2013-01-24 17:16:00,25.7,6.3,30.44,WNW,289,0.0,1.0,43,0.00,,---,0.04,VWS V14.01,2013-01-24 22:16:00,
2013-01-24 17:21:00,25.5,6.1,30.44,NW,310,0.0,0.0,43,0.00,,---,0.04,VWS V14.01,2013-01-24 22:21:00,
2013-01-24 17:26:00,25.4,6.0,30.45,NW,310,0.0,1.0,43,0.00,,---,0.04,VWS V14.01,2013-01-24 22:26:00,
2013-01-24 17:31:00,25.2,6.4,30.45,North,5,2.0,2.0,44,0.00,,---,0.04,VWS V14.01,2013-01-24 22:31:00,
2013-01-24 17:36:00,25.1,6.3,30.45,WNW,290,0.0,0.0,44,0.00,,---,0.04,VWS V14.01,2013-01-24 22:36:00,
2013-01-24 17:41:00,25.0,6.2,30.46,WNW,290,0.0,0.0,44,0.00,,---,0.04,VWS V14.01,2013-01-24 22:41:00,
2013-01-24 17:46:00,24.8,6.5,30.46,West,266,1.0,1.0,45,0.00,,---,0.04,VWS V14.01,2013-01-24 22:46:00,
2013-01-24 17:51:00,24.7,5.9,30.46,West,266,0.0,0.0,44,0.00,,---,0.04,VWS V14.01,2013-01-24 22:51:00,
2013-01-24 17:56:00,24.6,6.3,30.46,West,266,0.0,0.0,45,0.00,,---,0.04,VWS V14.01,2013-01-24 22:56:00,
2013-01-24 18:01:00,24.5,6.7,30.46,West,266,0.0,0.0,46,0.00,,---,0.04,VWS V14.01,2013-01-24 23:01:00,
2013-01-24 18:06:00,24.4,6.6,30.47,West,266,0.0,0.0,46,0.00,,---,0.04,VWS V14.01,2013-01-24 23:06:00,
2013-01-24 18:11:00,24.2,6.9,30.47,West,266,0.0,0.0,47,0.00,,---,0.04,VWS V14.01,2013-01-24 23:11:00,
2013-01-24 18:16:00,24.2,5.9,30.48,West,266,0.0,0.0,45,0.00,,---,0.04,VWS V14.01,2013-01-24 23:16:00,
2013-01-24 18:21:00,24.1,6.8,30.48,West,266,0.0,0.0,47,0.00,,---,0.04,VWS V14.01,2013-01-24 23:21:00,
2013-01-24 18:26:00,23.9,6.6,30.48,West,266,0.0,0.0,47,0.00,,---,0.04,VWS V14.01,2013-01-24 23:26:00,
2013-01-24 18:31:00,23.8,6.5,30.48,West,266,0.0,0.0,47,0.00,,---,0.04,VWS V14.01,2013-01-24 23:31:00,
2013-01-24 18:36:00,23.6,6.3,30.49,West,266,0.0,1.0,47,0.00,,---,0.04,VWS V14.01,2013-01-24 23:36:00,
2013-01-24 18:41:00,23.5,7.2,30.48,West,266,0.0,0.0,49,0.00,,---,0.04,VWS V14.01,2013-01-24 23:41:00,
2013-01-24 18:46:00,23.4,7.1,30.48,West,266,0.0,0.0,49,0.00,,---,0.04,VWS V14.01,2013-01-24 23:46:00,
2013-01-24 18:51:00,23.3,6.5,30.48,West,266,0.0,0.0,48,0.00,,---,0.04,VWS V14.01,2013-01-24 23:51:00,
2013-01-24 18:56:00,23.2,6.9,30.48,West,266,0.0,1.0,49,0.00,,---,0.04,VWS V14.01,2013-01-24 23:56:00,
2013-01-24 19:01:00,23.1,6.8,30.49,West,266,0.0,0.0,49,0.00,,---,0.04,VWS V14.01,2013-01-25 00:01:00,
2013-01-24 19:06:00,22.9,7.1,30.49,West,266,0.0,0.0,50,0.00,,---,0.04,VWS V14.01,2013-01-25 00:06:00,
2013-01-24 19:11:00,22.8,7.0,30.50,West,266,0.0,0.0,50,0.00,,---,0.04,VWS V14.01,2013-01-25 00:11:00,
2013-01-24 19:16:00,22.7,7.3,30.50,West,266,0.0,0.0,51,0.00,,---,0.04,VWS V14.01,2013-01-25 00:16:00,
2013-01-24 19:21:00,22.5,6.7,30.49,West,266,0.0,0.0,50,0.00,,---,0.04,VWS V14.01,2013-01-25 00:21:00,
2013-01-24 19:26:00,22.4,7.0,30.50,West,266,0.0,0.0,51,0.00,,---,0.04,VWS V14.01,2013-01-25 00:26:00,
2013-01-24 19:31:00,22.2,7.3,30.50,West,266,0.0,0.0,52,0.00,,---,0.04,VWS V14.01,2013-01-25 00:31:00,
2013-01-24 19:36:00,22.1,7.6,30.51,West,266,0.0,0.0,53,0.00,,---,0.04,VWS V14.01,2013-01-25 00:36:00,
2013-01-24 19:41:00,22.0,7.5,30.51,West,266,0.0,0.0,53,0.00,,---,0.04,VWS V14.01,2013-01-25 00:41:00,
2013-01-24 19:46:00,21.9,7.8,30.51,West,266,0.0,0.0,54,0.00,,---,0.04,VWS V14.01,2013-01-25 00:46:00,
2013-01-24 19:51:00,21.9,7.8,30.51,West,266,0.0,0.0,54,0.00,,---,0.04,VWS V14.01,2013-01-25 00:51:00,
2013-01-24 19:56:00,21.8,7.3,30.51,West,266,0.0,0.0,53,0.00,,---,0.04,VWS V14.01,2013-01-25 00:56:00,
2013-01-24 20:01:00,21.8,7.7,30.51,West,266,0.0,0.0,54,0.00,,---,0.04,VWS V14.01,2013-01-25 01:01:00,
2013-01-24 20:06:00,21.7,7.6,30.51,West,266,0.0,0.0,54,0.00,,---,0.04,VWS V14.01,2013-01-25 01:06:00,
2013-01-24 20:11:00,21.7,7.2,30.51,West,266,0.0,0.0,53,0.00,,---,0.04,VWS V14.01,2013-01-25 01:11:00,
2013-01-24 20:16:00,21.7,7.6,30.50,West,266,0.0,0.0,54,0.00,,---,0.04,VWS V14.01,2013-01-25 01:16:00,
2013-01-24 20:21:00,21.6,7.5,30.50,West,266,0.0,0.0,54,0.00,,---,0.04,VWS V14.01,2013-01-25 01:21:00,
2013-01-24 20:26:00,21.5,7.4,30.50,West,266,0.0,0.0,54,0.00,,---,0.04,VWS V14.01,2013-01-25 01:26:00,
2013-01-24 20:31:00,21.4,7.3,30.50,West,266,0.0,1.0,54,0.00,,---,0.04,VWS V14.01,2013-01-25 01:31:00,
2013-01-24 20:36:00,21.4,7.3,30.50,West,266,0.0,0.0,54,0.00,,---,0.04,VWS V14.01,2013-01-25 01:36:00,
2013-01-24 20:41:00,21.3,7.3,30.50,West,266,0.0,0.0,54,0.00,,---,0.04,VWS V14.01,2013-01-25 01:41:00,
2013-01-24 20:46:00,21.2,7.6,30.50,West,266,0.0,0.0,55,0.00,,---,0.04,VWS V14.01,2013-01-25 01:46:00,
2013-01-24 20:51:00,21.1,7.9,30.51,West,266,0.0,0.0,56,0.00,,---,0.04,VWS V14.01,2013-01-25 01:51:00,
2013-01-24 20:56:00,21.0,7.8,30.50,West,266,0.0,0.0,56,0.00,,---,0.04,VWS V14.01,2013-01-25 01:56:00,
2013-01-24 21:01:00,20.9,7.7,30.51,West,266,0.0,0.0,56,0.00,,---,0.04,VWS V14.01,2013-01-25 02:01:00,
2013-01-24 21:06:00,20.8,8.0,30.51,West,266,0.0,0.0,57,0.00,,---,0.04,VWS V14.01,2013-01-25 02:06:00,
2013-01-24 21:11:00,20.6,7.8,30.51,West,266,0.0,0.0,57,0.00,,---,0.04,VWS V14.01,2013-01-25 02:11:00,
2013-01-24 21:16:00,20.4,7.6,30.51,West,266,0.0,0.0,57,0.00,,---,0.04,VWS V14.01,2013-01-25 02:16:00,
2013-01-24 21:21:00,20.3,7.5,30.51,West,266,0.0,0.0,57,0.00,,---,0.04,VWS V14.01,2013-01-25 02:21:00,
2013-01-24 21:26:00,20.2,8.2,30.51,West,266,0.0,0.0,59,0.00,,---,0.04,VWS V14.01,2013-01-25 02:26:00,
2013-01-24 21:31:00,19.9,7.5,30.50,West,266,0.0,0.0,58,0.00,,---,0.04,VWS V14.01,2013-01-25 02:31:00,
2013-01-24 21:36:00,19.8,7.8,30.50,West,266,0.0,0.0,59,0.00,,---,0.04,VWS V14.01,2013-01-25 02:36:00,
2013-01-24 21:41:00,19.7,8.4,30.50,West,266,0.0,0.0,61,0.00,,---,0.04,VWS V14.01,2013-01-25 02:41:00,
2013-01-24 21:46:00,19.5,9.0,30.50,West,266,0.0,0.0,63,0.00,,---,0.04,VWS V14.01,2013-01-25 02:46:00,
2013-01-24 21:51:00,19.3,9.1,30.50,West,266,0.0,0.0,64,0.00,,---,0.04,VWS V14.01,2013-01-25 02:51:00,
2013-01-24 21:56:00,19.1,8.6,30.51,West,266,0.0,0.0,63,0.00,,---,0.04,VWS V14.01,2013-01-25 02:56:00,
2013-01-24 22:01:00,19.0,8.5,30.51,West,266,0.0,0.0,63,0.00,,---,0.04,VWS V14.01,2013-01-25 03:01:00,
2013-01-24 22:06:00,18.8,9.0,30.51,West,266,0.0,0.0,65,0.00,,---,0.04,VWS V14.01,2013-01-25 03:06:00,
2013-01-24 22:11:00,18.7,9.2,30.51,West,266,0.0,0.0,66,0.00,,---,0.04,VWS V14.01,2013-01-25 03:11:00,
2013-01-24 22:16:00,18.6,8.5,30.51,West,266,0.0,0.0,64,0.00,,---,0.04,VWS V14.01,2013-01-25 03:16:00,
2013-01-24 22:21:00,18.5,7.7,30.51,West,266,0.0,0.0,62,0.00,,---,0.04,VWS V14.01,2013-01-25 03:21:00,
2013-01-24 22:26:00,18.4,9.0,30.51,West,266,0.0,0.0,66,0.00,,---,0.04,VWS V14.01,2013-01-25 03:26:00,
2013-01-24 22:31:00,18.3,9.2,30.51,West,266,0.0,0.0,67,0.00,,---,0.04,VWS V14.01,2013-01-25 03:31:00,
2013-01-24 22:36:00,18.2,9.1,30.51,West,266,0.0,0.0,67,0.00,,---,0.04,VWS V14.01,2013-01-25 03:36:00,
2013-01-24 22:41:00,18.1,8.7,30.51,West,266,0.0,0.0,66,0.00,,---,0.04,VWS V14.01,2013-01-25 03:41:00,
2013-01-24 22:46:00,18.1,9.0,30.51,West,266,0.0,0.0,67,0.00,,---,0.04,VWS V14.01,2013-01-25 03:46:00,
2013-01-24 22:51:00,18.0,9.2,30.51,West,266,0.0,0.0,68,0.00,,---,0.04,VWS V14.01,2013-01-25 03:51:00,
2013-01-24 22:56:00,18.0,9.2,30.51,West,266,0.0,0.0,68,0.00,,---,0.04,VWS V14.01,2013-01-25 03:56:00,
2013-01-24 23:01:00,18.0,8.9,30.51,West,266,0.0,0.0,67,0.00,,---,0.04,VWS V14.01,2013-01-25 04:01:00,
2013-01-24 23:06:00,17.9,8.5,30.51,West,266,0.0,0.0,66,0.00,,---,0.04,VWS V14.01,2013-01-25 04:06:00,
2013-01-24 23:11:00,17.9,9.1,30.51,West,266,0.0,0.0,68,0.00,,---,0.04,VWS V14.01,2013-01-25 04:11:00,
2013-01-24 23:16:00,17.9,8.8,30.51,West,266,0.0,0.0,67,0.00,,---,0.04,VWS V14.01,2013-01-25 04:16:00,
2013-01-24 23:21:00,17.9,8.8,30.51,West,266,0.0,0.0,67,0.00,,---,0.04,VWS V14.01,2013-01-25 04:21:00,
2013-01-24 23:26:00,17.9,8.8,30.52,West,266,0.0,0.0,67,0.00,,---,0.04,VWS V14.01,2013-01-25 04:26:00,
2013-01-24 23:31:00,17.8,8.7,30.52,West,266,0.0,0.0,67,0.00,,---,0.04,VWS V14.01,2013-01-25 04:31:00,
2013-01-24 23:36:00,17.8,8.0,30.51,West,266,0.0,0.0,65,0.00,,---,0.04,VWS V14.01,2013-01-25 04:36:00,
2013-01-24 23:41:00,17.8,8.0,30.52,West,266,0.0,0.0,65,0.00,,---,0.04,VWS V14.01,2013-01-25 04:41:00,
2013-01-24 23:46:00,17.8,8.0,30.52,West,266,0.0,0.0,65,0.00,,---,0.04,VWS V14.01,2013-01-25 04:46:00,
2013-01-24 23:51:00,17.8,8.0,30.52,West,266,0.0,0.0,65,0.00,,---,0.04,VWS V14.01,2013-01-25 04:51:00,
2013-01-24 23:56:00,17.7,7.3,30.52,West,266,0.0,0.0,63,0.00,,---,0.04,VWS V14.01,2013-01-25 04:56:00,